Check out our new PWSWeather beta!
PWSweather.com
Personal Weather Stations
Station Observations
PENICUIKWS
PenicuikGB

PenicuikGB

Lat: 55.830932, Lon: -3.224533000000065

Elevation: 166

Station Type: Fine Offset

http://weather.penicuik.org

High Low Average
Temperature 71.2°F21.8°C 48.4°F9.1°C 59.8°F15.4°C
Dew Point 54.6°F12.6°C 46.0°F7.8°C 49.7°F9.8°C
Winds 3.0 mph 4.8 kmh Calm Calm 1.0 mph S1.6 kmh S
Wind Gusts 7.6 mph12.2 kmh -- 2.0 mph3.2 kmh
Humidity 95% 43% 71%
Pressure 30.02 in1016.6 mb 29.91 in1012.9 mb -
Precipitation 0.00 in0.0 mm - -
Hour Temp Dew Point Humidity Winds Wind Gusts Pressure Precip Precip Rate Daily Precip Total
12:00 AM 56.8°F13.8°C 51.1°F10.6°C 81% 0.5 mph N0.8 kmh N 1.6 mph2.6 kmh 29.94 in1013.9 mb 0.00 in0.0 mm 0.00 in0.0 mm 0.00 in0.0 mm
12:15 AM 55.8°F13.2°C 50.4°F10.2°C 82% 0.5 mph NW0.8 kmh NW 1.6 mph2.6 kmh 29.94 in1013.9 mb 0.00 in0.0 mm 0.00 in0.0 mm 0.00 in0.0 mm
12:30 AM 55.0°F12.8°C 50.0°F10.0°C 83% 0.6 mph WNW1.0 kmh WNW 1.6 mph2.6 kmh 29.93 in1013.5 mb 0.00 in0.0 mm 0.00 in0.0 mm 0.00 in0.0 mm
12:45 AM 54.5°F12.5°C 49.5°F9.7°C 83% 0.4 mph WSW0.6 kmh WSW 1.6 mph2.6 kmh 29.93 in1013.5 mb 0.00 in0.0 mm 0.00 in0.0 mm 0.00 in0.0 mm
01:00 AM 54.0°F12.2°C 49.2°F9.6°C 84% 0.6 mph NW1.0 kmh NW 1.6 mph2.6 kmh 29.93 in1013.5 mb 0.00 in0.0 mm 0.00 in0.0 mm 0.00 in0.0 mm
01:15 AM 53.2°F11.8°C 48.9°F9.4°C 85% 0.9 mph SW1.4 kmh SW 1.6 mph2.6 kmh 29.93 in1013.5 mb 0.00 in0.0 mm 0.00 in0.0 mm 0.00 in0.0 mm
01:30 AM 52.3°F11.3°C 48.3°F9.1°C 86% 0.2 mph NW0.3 kmh NW 1.6 mph2.6 kmh 29.92 in1013.2 mb 0.00 in0.0 mm 0.00 in0.0 mm 0.00 in0.0 mm
01:45 AM 51.4°F10.8°C 48.0°F8.9°C 88% 0.2 mph NW0.3 kmh NW 0.7 mph1.1 kmh 29.93 in1013.5 mb 0.00 in0.0 mm 0.00 in0.0 mm 0.00 in0.0 mm
02:00 AM 51.1°F10.6°C 48.0°F8.9°C 89% 0.3 mph N0.5 kmh N 1.6 mph2.6 kmh 29.93 in1013.5 mb 0.00 in0.0 mm 0.00 in0.0 mm 0.00 in0.0 mm
02:15 AM 50.9°F10.5°C 48.1°F8.9°C 90% 0.5 mph N0.8 kmh N 1.6 mph2.6 kmh 29.92 in1013.2 mb 0.00 in0.0 mm 0.00 in0.0 mm 0.00 in0.0 mm
02:30 AM 50.2°F10.1°C 47.7°F8.7°C 91% 0.2 mph N0.3 kmh N 0.7 mph1.1 kmh 29.92 in1013.2 mb 0.00 in0.0 mm 0.00 in0.0 mm 0.00 in0.0 mm
02:45 AM 49.3°F9.6°C 47.1°F8.4°C 92% Calm Calm -- 29.92 in1013.2 mb 0.00 in0.0 mm 0.00 in0.0 mm 0.00 in0.0 mm
03:00 AM 49.1°F9.5°C 46.9°F8.3°C 92% 0.1 mph W0.2 kmh W 0.7 mph1.1 kmh 29.92 in1013.2 mb 0.00 in0.0 mm 0.00 in0.0 mm 0.00 in0.0 mm
03:15 AM 48.9°F9.4°C 47.0°F8.3°C 93% Calm Calm -- 29.92 in1013.2 mb 0.00 in0.0 mm 0.00 in0.0 mm 0.00 in0.0 mm
03:30 AM 48.4°F9.1°C 46.5°F8.1°C 93% Calm Calm 0.7 mph1.1 kmh 29.92 in1013.2 mb 0.00 in0.0 mm 0.00 in0.0 mm 0.00 in0.0 mm
03:45 AM 48.6°F9.2°C 46.9°F8.3°C 94% 0.2 mph WSW0.3 kmh WSW 1.6 mph2.6 kmh 29.92 in1013.2 mb 0.00 in0.0 mm 0.00 in0.0 mm 0.00 in0.0 mm
04:00 AM 49.1°F9.5°C 47.7°F8.7°C 95% 0.3 mph NE0.5 kmh NE 1.6 mph2.6 kmh 29.93 in1013.5 mb 0.00 in0.0 mm 0.00 in0.0 mm 0.00 in0.0 mm
04:15 AM 50.0°F10.0°C 48.3°F9.1°C 94% 0.2 mph SE0.3 kmh SE 0.7 mph1.1 kmh 29.93 in1013.5 mb 0.00 in0.0 mm 0.00 in0.0 mm 0.00 in0.0 mm
04:30 AM 50.5°F10.3°C 48.9°F9.4°C 94% Calm Calm -- 29.92 in1013.2 mb 0.00 in0.0 mm 0.00 in0.0 mm 0.00 in0.0 mm
04:45 AM 51.4°F10.8°C 50.1°F10.1°C 95% 0.1 mph WNW0.2 kmh WNW 0.7 mph1.1 kmh 29.93 in1013.5 mb 0.00 in0.0 mm 0.00 in0.0 mm 0.00 in0.0 mm
05:00 AM 55.2°F12.9°C 53.2°F11.8°C 93% 0.9 mph SSE1.4 kmh SSE 2.2 mph3.5 kmh 29.92 in1013.2 mb 0.00 in0.0 mm 0.00 in0.0 mm 0.00 in0.0 mm
05:15 AM 55.6°F13.1°C 51.8°F11.0°C 87% 2.4 mph SW3.9 kmh SW 3.8 mph6.1 kmh 29.91 in1012.9 mb 0.00 in0.0 mm 0.00 in0.0 mm 0.00 in0.0 mm
05:30 AM 55.6°F13.1°C 51.5°F10.8°C 86% 0.5 mph S0.8 kmh S 2.2 mph3.5 kmh 29.92 in1013.2 mb 0.00 in0.0 mm 0.00 in0.0 mm 0.00 in0.0 mm
05:45 AM 55.8°F13.2°C 52.6°F11.4°C 89% 0.1 mph WNW0.2 kmh WNW 0.7 mph1.1 kmh 29.93 in1013.5 mb 0.00 in0.0 mm 0.00 in0.0 mm 0.00 in0.0 mm
06:00 AM 55.9°F13.3°C 52.8°F11.6°C 89% 0.2 mph WSW0.3 kmh WSW 0.7 mph1.1 kmh 29.92 in1013.2 mb 0.00 in0.0 mm 0.00 in0.0 mm 0.00 in0.0 mm
06:15 AM 56.5°F13.6°C 53.6°F12.0°C 90% 0.9 mph SW1.4 kmh SW 2.2 mph3.5 kmh 29.92 in1013.2 mb 0.00 in0.0 mm 0.00 in0.0 mm 0.00 in0.0 mm
06:30 AM 56.7°F13.7°C 53.5°F11.9°C 89% 1.2 mph S1.9 kmh S 3.8 mph6.1 kmh 29.93 in1013.5 mb 0.00 in0.0 mm 0.00 in0.0 mm 0.00 in0.0 mm
06:45 AM 56.8°F13.8°C 53.3°F11.8°C 88% 0.9 mph SSW1.4 kmh SSW 2.2 mph3.5 kmh 29.93 in1013.5 mb 0.00 in0.0 mm 0.00 in0.0 mm 0.00 in0.0 mm
07:00 AM 57.0°F13.9°C 53.5°F11.9°C 88% 0.7 mph S1.1 kmh S 2.2 mph3.5 kmh 29.93 in1013.5 mb 0.00 in0.0 mm 0.00 in0.0 mm 0.00 in0.0 mm
07:15 AM 58.5°F14.7°C 54.6°F12.6°C 87% 1.6 mph W2.6 kmh W 3.1 mph5.0 kmh 29.93 in1013.5 mb 0.00 in0.0 mm 0.00 in0.0 mm 0.00 in0.0 mm
07:30 AM 59.9°F15.5°C 54.4°F12.4°C 82% 1.5 mph S2.4 kmh S 3.8 mph6.1 kmh 29.93 in1013.5 mb 0.00 in0.0 mm 0.00 in0.0 mm 0.00 in0.0 mm
07:45 AM 61.2°F16.2°C 53.2°F11.8°C 75% 1.8 mph SW2.9 kmh SW 3.1 mph5.0 kmh 29.93 in1013.5 mb 0.00 in0.0 mm 0.00 in0.0 mm 0.00 in0.0 mm
08:00 AM 62.2°F16.8°C 53.1°F11.7°C 72% 1.6 mph SW2.6 kmh SW 3.1 mph5.0 kmh 29.93 in1013.5 mb 0.00 in0.0 mm 0.00 in0.0 mm 0.00 in0.0 mm
08:15 AM 63.5°F17.5°C 53.6°F12.0°C 70% 1.4 mph SE2.3 kmh SE 2.2 mph3.5 kmh 29.93 in1013.5 mb 0.00 in0.0 mm 0.00 in0.0 mm 0.00 in0.0 mm
08:30 AM 64.6°F18.1°C 53.8°F12.1°C 68% 1.1 mph WNW1.8 kmh WNW 1.6 mph2.6 kmh 29.94 in1013.9 mb 0.00 in0.0 mm 0.00 in0.0 mm 0.00 in0.0 mm
08:45 AM 64.2°F17.9°C 52.2°F11.2°C 65% 1.9 mph S3.1 kmh S 3.1 mph5.0 kmh 29.93 in1013.5 mb 0.00 in0.0 mm 0.00 in0.0 mm 0.00 in0.0 mm
09:00 AM 63.9°F17.7°C 53.1°F11.7°C 68% 1.8 mph S2.9 kmh S 3.8 mph6.1 kmh 29.93 in1013.5 mb 0.00 in0.0 mm 0.00 in0.0 mm 0.00 in0.0 mm
09:15 AM 64.6°F18.1°C 53.4°F11.9°C 67% 1.6 mph SW2.6 kmh SW 2.2 mph3.5 kmh 29.94 in1013.9 mb 0.00 in0.0 mm 0.00 in0.0 mm 0.00 in0.0 mm
09:30 AM 66.2°F19.0°C 52.8°F11.6°C 62% 2.0 mph SW3.2 kmh SW 3.8 mph6.1 kmh 29.94 in1013.9 mb 0.00 in0.0 mm 0.00 in0.0 mm 0.00 in0.0 mm
09:45 AM 65.5°F18.6°C 52.6°F11.4°C 63% 1.7 mph WSW2.7 kmh WSW 3.1 mph5.0 kmh 29.94 in1013.9 mb 0.00 in0.0 mm 0.00 in0.0 mm 0.00 in0.0 mm
10:00 AM 64.0°F17.8°C 52.5°F11.4°C 66% 2.3 mph WSW3.7 kmh WSW 4.5 mph7.2 kmh 29.94 in1013.9 mb 0.00 in0.0 mm 0.00 in0.0 mm 0.00 in0.0 mm
10:15 AM 63.0°F17.2°C 53.0°F11.7°C 70% 1.5 mph S2.4 kmh S 2.2 mph3.5 kmh 29.95 in1014.2 mb 0.00 in0.0 mm 0.00 in0.0 mm 0.00 in0.0 mm
10:30 AM 61.9°F16.6°C 52.8°F11.6°C 72% 1.7 mph SSE2.7 kmh SSE 3.1 mph5.0 kmh 29.95 in1014.2 mb 0.00 in0.0 mm 0.00 in0.0 mm 0.00 in0.0 mm
10:45 AM 61.9°F16.6°C 52.0°F11.1°C 70% 1.9 mph SSW3.1 kmh SSW 3.8 mph6.1 kmh 29.95 in1014.2 mb 0.00 in0.0 mm 0.00 in0.0 mm 0.00 in0.0 mm
11:00 AM 63.3°F17.4°C 51.8°F11.0°C 66% 2.3 mph S3.7 kmh S 3.1 mph5.0 kmh 29.95 in1014.2 mb 0.00 in0.0 mm 0.00 in0.0 mm 0.00 in0.0 mm
11:15 AM 67.1°F19.5°C 52.8°F11.6°C 60% 2.0 mph NE3.2 kmh NE 3.8 mph6.1 kmh 29.95 in1014.2 mb 0.00 in0.0 mm 0.00 in0.0 mm 0.00 in0.0 mm
11:30 AM 70.0°F21.1°C 51.0°F10.6°C 51% 2.2 mph WNW3.5 kmh WNW 3.1 mph5.0 kmh 29.95 in1014.2 mb 0.00 in0.0 mm 0.00 in0.0 mm 0.00 in0.0 mm
11:45 AM 68.5°F20.3°C 50.2°F10.1°C 52% 2.5 mph ENE4.0 kmh ENE 4.5 mph7.2 kmh 29.95 in1014.2 mb 0.00 in0.0 mm 0.00 in0.0 mm 0.00 in0.0 mm
12:00 PM 68.9°F20.5°C 51.1°F10.6°C 53% 2.5 mph SW4.0 kmh SW 4.5 mph7.2 kmh 29.94 in1013.9 mb 0.00 in0.0 mm 0.00 in0.0 mm 0.00 in0.0 mm
12:15 PM 69.8°F21.0°C 50.3°F10.2°C 50% 1.9 mph NNE3.1 kmh NNE 3.1 mph5.0 kmh 29.94 in1013.9 mb 0.00 in0.0 mm 0.00 in0.0 mm 0.00 in0.0 mm
12:30 PM 68.9°F20.5°C 50.6°F10.3°C 52% 2.1 mph WSW3.4 kmh WSW 4.5 mph7.2 kmh 29.93 in1013.5 mb 0.00 in0.0 mm 0.00 in0.0 mm 0.00 in0.0 mm
12:45 PM 68.0°F20.0°C 49.7°F9.8°C 52% 2.3 mph SE3.7 kmh SE 3.8 mph6.1 kmh 29.94 in1013.9 mb 0.00 in0.0 mm 0.00 in0.0 mm 0.00 in0.0 mm
01:00 PM 71.2°F21.8°C 51.7°F10.9°C 50% 2.7 mph N4.3 kmh N 4.5 mph7.2 kmh 29.94 in1013.9 mb 0.00 in0.0 mm 0.00 in0.0 mm 0.00 in0.0 mm
01:15 PM 69.6°F20.9°C 51.8°F11.0°C 53% 1.5 mph NNE2.4 kmh NNE 2.2 mph3.5 kmh 29.93 in1013.5 mb 0.00 in0.0 mm 0.00 in0.0 mm 0.00 in0.0 mm
01:30 PM 70.2°F21.2°C 50.7°F10.4°C 50% 2.1 mph SE3.4 kmh SE 3.1 mph5.0 kmh 29.94 in1013.9 mb 0.00 in0.0 mm 0.00 in0.0 mm 0.00 in0.0 mm
01:45 PM 68.0°F20.0°C 49.2°F9.6°C 51% 3.0 mph SSW4.8 kmh SSW 4.5 mph7.2 kmh 29.94 in1013.9 mb 0.00 in0.0 mm 0.00 in0.0 mm 0.00 in0.0 mm
02:00 PM 66.7°F19.3°C 49.6°F9.8°C 54% 3.0 mph SSW4.8 kmh SSW 7.6 mph12.2 kmh 29.94 in1013.9 mb 0.00 in0.0 mm 0.00 in0.0 mm 0.00 in0.0 mm
02:15 PM 65.8°F18.8°C 49.7°F9.8°C 56% 2.2 mph S3.5 kmh S 3.8 mph6.1 kmh 29.94 in1013.9 mb 0.00 in0.0 mm 0.00 in0.0 mm 0.00 in0.0 mm
02:30 PM 67.1°F19.5°C 49.9°F9.9°C 54% 2.3 mph SSW3.7 kmh SSW 4.5 mph7.2 kmh 29.94 in1013.9 mb 0.00 in0.0 mm 0.00 in0.0 mm 0.00 in0.0 mm
02:45 PM 70.0°F21.1°C 50.5°F10.3°C 50% 1.8 mph S2.9 kmh S 2.2 mph3.5 kmh 29.94 in1013.9 mb 0.00 in0.0 mm 0.00 in0.0 mm 0.00 in0.0 mm
03:00 PM 71.1°F21.7°C 47.5°F8.6°C 43% 2.8 mph S4.5 kmh S 4.5 mph7.2 kmh 29.94 in1013.9 mb 0.00 in0.0 mm 0.00 in0.0 mm 0.00 in0.0 mm
03:15 PM 68.5°F20.3°C 48.6°F9.2°C 49% 2.6 mph SSW4.2 kmh SSW 5.4 mph8.7 kmh 29.95 in1014.2 mb 0.00 in0.0 mm 0.00 in0.0 mm 0.00 in0.0 mm
03:30 PM 68.7°F20.4°C 49.9°F9.9°C 51% 2.5 mph SE4.0 kmh SE 3.8 mph6.1 kmh 29.95 in1014.2 mb 0.00 in0.0 mm 0.00 in0.0 mm 0.00 in0.0 mm
03:45 PM 68.7°F20.4°C 49.4°F9.7°C 50% 2.7 mph ESE4.3 kmh ESE 5.4 mph8.7 kmh 29.94 in1013.9 mb 0.00 in0.0 mm 0.00 in0.0 mm 0.00 in0.0 mm
04:00 PM 67.5°F19.7°C 48.7°F9.3°C 51% 2.8 mph SW4.5 kmh SW 4.5 mph7.2 kmh 29.95 in1014.2 mb 0.00 in0.0 mm 0.00 in0.0 mm 0.00 in0.0 mm
04:15 PM 67.3°F19.6°C 48.6°F9.2°C 51% 2.1 mph SE3.4 kmh SE 3.1 mph5.0 kmh 29.94 in1013.9 mb 0.00 in0.0 mm 0.00 in0.0 mm 0.00 in0.0 mm
04:30 PM 67.8°F19.9°C 49.1°F9.5°C 51% 2.0 mph SSE3.2 kmh SSE 3.1 mph5.0 kmh 29.95 in1014.2 mb 0.00 in0.0 mm 0.00 in0.0 mm 0.00 in0.0 mm
04:45 PM 67.1°F19.5°C 48.4°F9.1°C 51% 2.2 mph S3.5 kmh S 3.8 mph6.1 kmh 29.95 in1014.2 mb 0.00 in0.0 mm 0.00 in0.0 mm 0.00 in0.0 mm
05:00 PM 68.0°F20.0°C 49.2°F9.6°C 51% 1.6 mph NNE2.6 kmh NNE 2.2 mph3.5 kmh 29.95 in1014.2 mb 0.00 in0.0 mm 0.00 in0.0 mm 0.00 in0.0 mm
05:15 PM 67.1°F19.5°C 48.9°F9.4°C 52% 2.3 mph SSW3.7 kmh SSW 3.1 mph5.0 kmh 29.96 in1014.6 mb 0.00 in0.0 mm 0.00 in0.0 mm 0.00 in0.0 mm
05:30 PM 65.5°F18.6°C 48.9°F9.4°C 55% 1.3 mph N2.1 kmh N 2.2 mph3.5 kmh 29.95 in1014.2 mb 0.00 in0.0 mm 0.00 in0.0 mm 0.00 in0.0 mm
05:45 PM 64.9°F18.3°C 48.9°F9.4°C 56% 1.0 mph SSW1.6 kmh SSW 1.6 mph2.6 kmh 29.96 in1014.6 mb 0.00 in0.0 mm 0.00 in0.0 mm 0.00 in0.0 mm
06:00 PM 65.3°F18.5°C 47.7°F8.7°C 53% 2.9 mph SW4.7 kmh SW 5.4 mph8.7 kmh 29.96 in1014.6 mb 0.00 in0.0 mm 0.00 in0.0 mm 0.00 in0.0 mm
06:15 PM 64.0°F17.8°C 46.6°F8.1°C 53% 1.7 mph N2.7 kmh N 5.4 mph8.7 kmh 29.96 in1014.6 mb 0.00 in0.0 mm 0.00 in0.0 mm 0.00 in0.0 mm
06:30 PM 63.7°F17.6°C 47.7°F8.7°C 56% 1.4 mph W2.3 kmh W 2.2 mph3.5 kmh 29.96 in1014.6 mb 0.00 in0.0 mm 0.00 in0.0 mm 0.00 in0.0 mm
06:45 PM 61.9°F16.6°C 47.4°F8.6°C 59% 0.7 mph SW1.1 kmh SW 1.6 mph2.6 kmh 29.96 in1014.6 mb 0.00 in0.0 mm 0.00 in0.0 mm 0.00 in0.0 mm
07:00 PM 61.9°F16.6°C 47.9°F8.8°C 60% 1.8 mph WSW2.9 kmh WSW 4.5 mph7.2 kmh 29.97 in1014.9 mb 0.00 in0.0 mm 0.00 in0.0 mm 0.00 in0.0 mm
07:15 PM 61.3°F16.3°C 47.8°F8.8°C 61% 1.5 mph SSW2.4 kmh SSW 3.8 mph6.1 kmh 29.97 in1014.9 mb 0.00 in0.0 mm 0.00 in0.0 mm 0.00 in0.0 mm
07:30 PM 60.3°F15.7°C 48.0°F8.9°C 64% 0.8 mph WSW1.3 kmh WSW 1.6 mph2.6 kmh 29.98 in1015.2 mb 0.00 in0.0 mm 0.00 in0.0 mm 0.00 in0.0 mm
07:45 PM 59.7°F15.4°C 48.4°F9.1°C 66% 1.4 mph SW2.3 kmh SW 3.1 mph5.0 kmh 29.97 in1014.9 mb 0.00 in0.0 mm 0.00 in0.0 mm 0.00 in0.0 mm
08:00 PM 58.8°F14.9°C 48.7°F9.3°C 69% 0.5 mph SW0.8 kmh SW 0.7 mph1.1 kmh 29.97 in1014.9 mb 0.00 in0.0 mm 0.00 in0.0 mm 0.00 in0.0 mm
08:15 PM 57.4°F14.1°C 48.1°F8.9°C 71% Calm Calm -- 29.98 in1015.2 mb 0.00 in0.0 mm 0.00 in0.0 mm 0.00 in0.0 mm
08:30 PM 56.3°F13.5°C 47.8°F8.8°C 73% 0.1 mph S0.2 kmh S 0.7 mph1.1 kmh 29.98 in1015.2 mb 0.00 in0.0 mm 0.00 in0.0 mm 0.00 in0.0 mm
08:45 PM 55.8°F13.2°C 48.0°F8.9°C 75% 0.2 mph SW0.3 kmh SW 0.7 mph1.1 kmh 29.98 in1015.2 mb 0.00 in0.0 mm 0.00 in0.0 mm 0.00 in0.0 mm
09:00 PM 54.9°F12.7°C 47.1°F8.4°C 75% Calm Calm -- 29.99 in1015.6 mb 0.00 in0.0 mm 0.00 in0.0 mm 0.00 in0.0 mm
09:15 PM 54.3°F12.4°C 46.9°F8.3°C 76% 0.2 mph W0.3 kmh W 0.7 mph1.1 kmh 30.00 in1015.9 mb 0.00 in0.0 mm 0.00 in0.0 mm 0.00 in0.0 mm
09:30 PM 54.0°F12.2°C 46.9°F8.3°C 77% Calm Calm -- 30.00 in1015.9 mb 0.00 in0.0 mm 0.00 in0.0 mm 0.00 in0.0 mm
09:45 PM 53.6°F12.0°C 46.9°F8.3°C 78% Calm Calm -- 30.00 in1015.9 mb 0.00 in0.0 mm 0.00 in0.0 mm 0.00 in0.0 mm
10:00 PM 52.3°F11.3°C 46.4°F8.0°C 80% 0.2 mph NW0.3 kmh NW 0.7 mph1.1 kmh 30.01 in1016.3 mb 0.00 in0.0 mm 0.00 in0.0 mm 0.00 in0.0 mm
10:15 PM 51.4°F10.8°C 46.5°F8.1°C 83% Calm Calm -- 30.01 in1016.3 mb 0.00 in0.0 mm 0.00 in0.0 mm 0.00 in0.0 mm
10:30 PM 51.1°F10.6°C 46.4°F8.0°C 84% 0.2 mph W0.3 kmh W 0.7 mph1.1 kmh 30.01 in1016.3 mb 0.00 in0.0 mm 0.00 in0.0 mm 0.00 in0.0 mm
10:45 PM 50.4°F10.2°C 46.0°F7.8°C 85% 0.2 mph NW0.3 kmh NW 1.6 mph2.6 kmh 30.01 in1016.3 mb 0.00 in0.0 mm 0.00 in0.0 mm 0.00 in0.0 mm
11:00 PM 50.0°F10.0°C 46.3°F7.9°C 87% 0.1 mph W0.2 kmh W 0.7 mph1.1 kmh 30.01 in1016.3 mb 0.00 in0.0 mm 0.00 in0.0 mm 0.00 in0.0 mm
11:15 PM 50.0°F10.0°C 46.6°F8.1°C 88% 0.1 mph WNW0.2 kmh WNW 0.7 mph1.1 kmh 30.02 in1016.6 mb 0.00 in0.0 mm 0.00 in0.0 mm 0.00 in0.0 mm
11:30 PM 50.7°F10.4°C 47.9°F8.8°C 90% 0.3 mph WSW0.5 kmh WSW 1.6 mph2.6 kmh 30.02 in1016.6 mb 0.00 in0.0 mm 0.00 in0.0 mm 0.00 in0.0 mm
11:45 PM 50.9°F10.5°C 47.8°F8.8°C 89% 0.5 mph SE0.8 kmh SE 1.6 mph2.6 kmh 30.02 in1016.6 mb 0.00 in0.0 mm 0.00 in0.0 mm 0.00 in0.0 mm